Time;durP1;ratioP1;P1;durP2;ratioP2;P2;SDS_P1;SDS_P2;PMS_P1;PMS_P2;Temp;Humidity;BMP_temperature;BMP_pressure;BME280_temperature;BME280_humidity;BME280_pressure;Samples;Min_cycle;Max_cycle;Signal;HPM_P1;HPM_P2
2022/04/08 00:00:07;;;;;;;17.85;16.65;;;;;;;;;;5015643;28;20203;-87
2022/04/08 00:02:35;;;;;;;18.15;17.25;;;;;;;;;;5015644;28;20229;-88
2022/04/08 00:05:02;;;;;;;18.48;17.48;;;;;;;;;;5015733;28;20225;-88
2022/04/08 00:07:31;;;;;;;19.38;17.95;;;;;;;;;;5015404;28;20210;-86
2022/04/08 00:09:58;;;;;;;18.55;17.40;;;;;;;;;;5015220;28;20201;-87
2022/04/08 00:12:26;;;;;;;18.88;17.58;;;;;;;;;;5015345;28;20197;-87
2022/04/08 00:14:53;;;;;;;18.35;17.45;;;;;;;;;;5013778;28;20695;-87
2022/04/08 00:17:21;;;;;;;18.23;16.83;;;;;;;;;;5014108;28;20679;-88
2022/04/08 00:19:48;;;;;;;17.85;16.75;;;;;;;;;;5014992;28;20202;-87
2022/04/08 00:22:16;;;;;;;17.50;16.60;;;;;;;;;;5015043;28;20226;-87
2022/04/08 00:24:45;;;;;;;18.80;17.70;;;;;;;;;;5014268;28;20209;-87
2022/04/08 00:27:13;;;;;;;17.80;16.55;;;;;;;;;;5014685;28;20194;-87
2022/04/08 00:29:40;;;;;;;18.23;17.00;;;;;;;;;;5014803;28;20232;-87
2022/04/08 00:32:08;;;;;;;18.17;17.13;;;;;;;;;;5014717;28;20209;-87
2022/04/08 00:34:35;;;;;;;18.25;17.20;;;;;;;;;;5014148;28;20221;-86
2022/04/08 00:37:03;;;;;;;17.55;16.65;;;;;;;;;;5014884;28;20540;-87
2022/04/08 00:39:30;;;;;;;17.30;16.30;;;;;;;;;;5014890;28;20633;-87
2022/04/08 00:42:02;;;;;;;17.52;16.50;;;;;;;;;;5014912;28;20556;-87
2022/04/08 00:44:31;;;;;;;19.10;16.50;;;;;;;;;;5014886;28;20197;-86
2022/04/08 00:46:58;;;;;;;17.80;16.77;;;;;;;;;;5015036;28;20194;-87
2022/04/08 00:49:26;;;;;;;18.42;17.25;;;;;;;;;;5014737;28;20197;-87
2022/04/08 00:51:53;;;;;;;18.15;16.83;;;;;;;;;;5014547;28;20193;-87
2022/04/08 00:54:21;;;;;;;18.48;17.00;;;;;;;;;;5014299;28;20683;-87
2022/04/08 00:56:49;;;;;;;17.58;16.77;;;;;;;;;;5018180;28;20240;-88
2022/04/08 00:59:18;;;;;;;18.13;17.10;;;;;;;;;;5033924;28;20189;-88
2022/04/08 01:01:46;;;;;;;19.05;17.40;;;;;;;;;;5034089;28;20193;-88
2022/04/08 01:04:14;;;;;;;19.10;17.75;;;;;;;;;;5034035;28;20194;-88
2022/04/08 01:06:43;;;;;;;18.67;17.63;;;;;;;;;;5034471;28;20201;-87
2022/04/08 01:09:10;;;;;;;18.58;17.27;;;;;;;;;;5033785;28;20200;-87
2022/04/08 01:11:38;;;;;;;17.85;16.85;;;;;;;;;;5034315;28;20540;-87
2022/04/08 01:14:09;;;;;;;18.42;17.42;;;;;;;;;;5016550;28;20683;-87
2022/04/08 01:16:38;;;;;;;18.88;17.40;;;;;;;;;;5034103;28;20216;-88
2022/04/08 01:19:06;;;;;;;17.80;16.90;;;;;;;;;;5034058;28;20196;-86
2022/04/08 01:21:34;;;;;;;17.80;16.70;;;;;;;;;;5016222;28;20221;-87
2022/04/08 01:24:02;;;;;;;19.70;18.27;;;;;;;;;;5033691;28;20708;-89
2022/04/08 01:26:31;;;;;;;18.70;17.52;;;;;;;;;;5034093;28;20185;-87
2022/04/08 01:28:59;;;;;;;18.52;17.55;;;;;;;;;;5033885;28;20631;-87
2022/04/08 01:31:29;;;;;;;17.65;16.75;;;;;;;;;;5016286;28;20201;-88
2022/04/08 01:33:57;;;;;;;18.35;17.45;;;;;;;;;;5033821;28;20200;-87
2022/04/08 01:36:24;;;;;;;18.52;17.42;;;;;;;;;;5016349;28;20212;-87
2022/04/08 01:38:51;;;;;;;18.00;16.95;;;;;;;;;;5015883;28;20251;-87
2022/04/08 01:41:20;;;;;;;17.50;16.60;;;;;;;;;;5034075;28;20227;-87
2022/04/08 01:43:49;;;;;;;18.00;17.00;;;;;;;;;;5034041;28;20200;-87
2022/04/08 01:46:16;;;;;;;18.17;17.27;;;;;;;;;;5034921;28;20205;-86
2022/04/08 01:48:44;;;;;;;18.38;17.38;;;;;;;;;;5037614;28;20209;-87
2022/04/08 01:51:11;;;;;;;19.45;18.25;;;;;;;;;;5020208;28;20659;-87
2022/04/08 01:53:39;;;;;;;18.70;17.70;;;;;;;;;;5037914;28;20550;-87
2022/04/08 01:56:07;;;;;;;18.95;17.80;;;;;;;;;;5037752;28;20252;-87
2022/04/08 01:58:34;;;;;;;19.45;18.25;;;;;;;;;;5037472;28;20233;-87
2022/04/08 02:01:03;;;;;;;18.73;17.70;;;;;;;;;;5020422;28;20190;-86
2022/04/08 02:03:30;;;;;;;19.25;18.20;;;;;;;;;;5038348;28;20194;-87
2022/04/08 02:05:58;;;;;;;19.38;18.10;;;;;;;;;;5038027;28;20190;-87
2022/04/08 02:08:25;;;;;;;18.73;17.45;;;;;;;;;;5036604;28;20190;-87
2022/04/08 02:10:53;;;;;;;19.48;18.50;;;;;;;;;;5036976;28;20551;-86
2022/04/08 02:13:21;;;;;;;19.85;18.75;;;;;;;;;;5037433;28;20193;-87
2022/04/08 02:15:48;;;;;;;20.73;19.35;;;;;;;;;;5036982;28;20228;-87
2022/04/08 02:18:17;;;;;;;20.00;18.90;;;;;;;;;;5019403;28;20251;-87
2022/04/08 02:20:45;;;;;;;19.90;18.90;;;;;;;;;;5037043;28;20225;-85
2022/04/08 02:23:12;;;;;;;20.23;19.02;;;;;;;;;;5037109;28;20206;-87
2022/04/08 02:25:39;;;;;;;19.30;18.40;;;;;;;;;;5036912;28;20201;-87
2022/04/08 02:28:07;;;;;;;20.70;19.48;;;;;;;;;;5036856;28;20194;-87
2022/04/08 02:30:34;;;;;;;21.55;20.35;;;;;;;;;;5036636;28;20210;-86
2022/04/08 02:33:04;;;;;;;20.65;19.55;;;;;;;;;;5036828;28;20227;-87
2022/04/08 02:35:33;;;;;;;20.90;19.75;;;;;;;;;;5018736;28;20283;-86
2022/04/08 02:38:00;;;;;;;21.83;19.92;;;;;;;;;;5036838;28;20205;-87
2022/04/08 02:40:28;;;;;;;20.95;19.75;;;;;;;;;;5036403;28;20200;-86
2022/04/08 02:42:55;;;;;;;20.73;19.60;;;;;;;;;;5036906;28;20559;-87
2022/04/08 02:45:22;;;;;;;20.42;19.33;;;;;;;;;;5036929;28;20548;-87
2022/04/08 02:47:50;;;;;;;20.40;19.30;;;;;;;;;;5036425;28;20189;-87
2022/04/08 02:50:18;;;;;;;19.90;18.83;;;;;;;;;;5036238;28;20197;-87
2022/04/08 02:52:47;;;;;;;19.77;18.67;;;;;;;;;;5036252;28;20651;-87
2022/04/08 02:55:14;;;;;;;20.27;19.17;;;;;;;;;;5018868;28;20638;-85
2022/04/08 02:57:46;;;;;;;20.05;19.00;;;;;;;;;;5035114;28;20333;-87
2022/04/08 03:00:17;;;;;;;20.67;19.40;;;;;;;;;;5036449;28;20193;-87
2022/04/08 03:02:44;;;;;;;19.95;18.75;;;;;;;;;;5036472;28;20197;-87
2022/04/08 03:05:12;;;;;;;19.77;18.73;;;;;;;;;;5036012;28;20194;-87
2022/04/08 03:07:39;;;;;;;19.60;18.40;;;;;;;;;;5036402;28;20201;-87
2022/04/08 03:10:09;;;;;;;18.80;17.90;;;;;;;;;;5035925;28;20205;-87
2022/04/08 03:12:37;;;;;;;17.90;17.10;;;;;;;;;;5036441;28;20199;-86
2022/04/08 03:15:05;;;;;;;18.23;17.33;;;;;;;;;;5036063;28;20580;-86
2022/04/08 03:17:33;;;;;;;18.95;17.85;;;;;;;;;;5018296;28;20228;-87
2022/04/08 03:20:00;;;;;;;18.20;17.20;;;;;;;;;;5036039;28;20222;-87
2022/04/08 03:22:28;;;;;;;18.33;17.23;;;;;;;;;;5036020;28;20189;-87
2022/04/08 03:24:55;;;;;;;17.85;17.00;;;;;;;;;;5018224;28;20215;-87
2022/04/08 03:27:24;;;;;;;17.70;16.90;;;;;;;;;;5035646;28;20185;-87
2022/04/08 03:29:51;;;;;;;17.95;17.05;;;;;;;;;;5035959;28;20196;-87
2022/04/08 03:32:19;;;;;;;18.40;17.50;;;;;;;;;;5035926;28;20201;-87
2022/04/08 03:34:46;;;;;;;17.50;16.70;;;;;;;;;;5035805;28;20214;-86
2022/04/08 03:37:16;;;;;;;18.55;17.65;;;;;;;;;;5035725;28;20202;-88
2022/04/08 03:39:44;;;;;;;18.10;17.20;;;;;;;;;;5017798;28;20201;-87
2022/04/08 03:42:11;;;;;;;17.77;17.08;;;;;;;;;;5035852;28;20224;-87
2022/04/08 03:44:40;;;;;;;18.75;17.50;;;;;;;;;;5035195;28;20225;-87
2022/04/08 03:47:08;;;;;;;19.30;18.30;;;;;;;;;;5035255;28;20525;-87
2022/04/08 03:49:36;;;;;;;20.10;18.67;;;;;;;;;;5035014;28;20709;-86
2022/04/08 03:52:05;;;;;;;19.75;18.67;;;;;;;;;;5017425;28;20227;-86
2022/04/08 03:54:33;;;;;;;19.10;18.10;;;;;;;;;;5035384;28;20190;-87
2022/04/08 03:57:00;;;;;;;19.75;18.75;;;;;;;;;;5035220;28;20237;-86
2022/04/08 03:59:27;;;;;;;19.75;18.75;;;;;;;;;;5017398;28;20618;-87
2022/04/08 04:01:56;;;;;;;21.33;19.52;;;;;;;;;;5017506;28;20255;-87
2022/04/08 04:04:24;;;;;;;19.45;18.38;;;;;;;;;;5035350;28;20209;-87
2022/04/08 04:06:51;;;;;;;21.65;20.17;;;;;;;;;;5034729;28;20205;-87
2022/04/08 04:09:19;;;;;;;20.20;18.83;;;;;;;;;;5017833;28;20212;-86
2022/04/08 04:11:46;;;;;;;19.58;18.27;;;;;;;;;;5034727;28;20198;-87
2022/04/08 04:14:14;;;;;;;19.40;18.10;;;;;;;;;;5034771;28;20292;-87
2022/04/08 04:16:41;;;;;;;21.90;19.95;;;;;;;;;;5035043;28;20217;-87
2022/04/08 04:19:10;;;;;;;20.48;19.17;;;;;;;;;;5034764;28;20192;-87
2022/04/08 04:21:38;;;;;;;20.13;18.92;;;;;;;;;;5034978;28;20229;-87
2022/04/08 04:24:06;;;;;;;20.10;19.00;;;;;;;;;;5034644;28;20190;-86
2022/04/08 04:26:33;;;;;;;21.15;19.42;;;;;;;;;;5034425;28;20209;-87
2022/04/08 04:29:01;;;;;;;20.58;19.25;;;;;;;;;;5034657;28;20624;-87
2022/04/08 04:31:28;;;;;;;20.63;19.42;;;;;;;;;;5034383;28;20197;-87
2022/04/08 04:33:55;;;;;;;21.23;19.80;;;;;;;;;;5034701;28;20190;-86
2022/04/08 04:36:24;;;;;;;26.35;24.83;;;;;;;;;;5034910;28;20220;-87
2022/04/08 04:38:52;;;;;;;27.08;25.45;;;;;;;;;;5035123;28;20276;-87
2022/04/08 04:41:20;;;;;;;26.98;25.40;;;;;;;;;;5034690;28;20197;-87
2022/04/08 04:43:47;;;;;;;27.60;25.98;;;;;;;;;;5034140;28;20193;-87
2022/04/08 04:46:15;;;;;;;25.80;24.40;;;;;;;;;;5016702;28;20263;-86
2022/04/08 04:48:42;;;;;;;27.15;25.00;;;;;;;;;;5034282;28;20192;-86
2022/04/08 04:51:13;;;;;;;26.23;24.52;;;;;;;;;;5034479;28;20581;-86
2022/04/08 04:53:42;;;;;;;26.35;24.88;;;;;;;;;;5034374;28;20244;-87
2022/04/08 04:56:09;;;;;;;27.35;25.20;;;;;;;;;;5034041;28;20248;-89
2022/04/08 04:58:37;;;;;;;26.33;24.85;;;;;;;;;;5034193;28;20233;-94
2022/04/08 05:01:04;;;;;;;24.63;23.00;;;;;;;;;;5034673;28;20273;-94
2022/04/08 05:03:32;;;;;;;25.20;23.70;;;;;;;;;;5034221;28;20196;-95
2022/04/08 05:05:59;;;;;;;25.85;23.95;;;;;;;;;;5034304;28;20209;-94
2022/04/08 05:08:26;;;;;;;24.90;23.17;;;;;;;;;;5034460;28;20197;-94
2022/04/08 05:10:55;;;;;;;24.88;23.13;;;;;;;;;;5034059;28;20205;-93
2022/04/08 05:13:23;;;;;;;23.98;22.67;;;;;;;;;;5000454;28;20229;-94
2022/04/08 05:15:50;;;;;;;25.13;22.90;;;;;;;;;;5034130;28;20221;-94
2022/04/08 05:18:18;;;;;;;25.63;23.55;;;;;;;;;;5034180;28;20190;-95
2022/04/08 05:20:45;;;;;;;23.73;22.42;;;;;;;;;;4999803;28;20225;-93
2022/04/08 05:23:13;;;;;;;23.80;21.90;;;;;;;;;;5034169;28;20200;-94
2022/04/08 05:25:40;;;;;;;24.77;23.02;;;;;;;;;;5034189;28;20273;-94
2022/04/08 05:28:11;;;;;;;23.98;22.23;;;;;;;;;;5034106;28;20189;-94
2022/04/08 05:30:39;;;;;;;25.20;23.70;;;;;;;;;;5034385;28;20252;-94
2022/04/08 05:33:06;;;;;;;24.67;22.77;;;;;;;;;;5017164;28;20190;-94
2022/04/08 05:35:34;;;;;;;24.20;22.58;;;;;;;;;;5033767;28;20213;-96
2022/04/08 05:38:01;;;;;;;23.95;22.20;;;;;;;;;;5033680;28;20209;-95
2022/04/08 05:40:29;;;;;;;25.13;22.90;;;;;;;;;;5016193;28;20205;-96
2022/04/08 05:42:56;;;;;;;26.60;24.80;;;;;;;;;;5034155;28;20569;-95
2022/04/08 05:45:25;;;;;;;25.35;23.73;;;;;;;;;;5034610;28;20190;-96
2022/04/08 05:47:54;;;;;;;27.08;25.17;;;;;;;;;;5034004;28;20628;-96
2022/04/08 05:50:21;;;;;;;25.55;23.55;;;;;;;;;;5033944;28;20193;-96
2022/04/08 05:52:51;;;;;;;25.20;23.30;;;;;;;;;;5034253;28;20208;-96
2022/04/08 05:55:18;;;;;;;24.80;23.10;;;;;;;;;;5034172;28;20194;-96
2022/04/08 05:57:47;;;;;;;24.10;22.33;;;;;;;;;;5033667;28;20233;-95
2022/04/08 06:00:17;;;;;;;24.80;22.90;;;;;;;;;;5033605;28;20202;-95
2022/04/08 06:02:47;;;;;;;24.65;22.92;;;;;;;;;;5033566;28;20201;-96
2022/04/08 06:05:18;;;;;;;21.92;20.02;;;;;;;;;;5034076;28;20571;-96
2022/04/08 06:07:46;;;;;;;20.98;19.23;;;;;;;;;;5033845;28;20186;-96
2022/04/08 06:10:18;;;;;;;23.95;21.90;;;;;;;;;;5016027;28;20236;-96
2022/04/08 06:12:45;;;;;;;22.55;20.40;;;;;;;;;;5033573;28;20237;-96
2022/04/08 06:15:13;;;;;;;23.52;21.73;;;;;;;;;;5033726;28;20548;-95
2022/04/08 06:17:40;;;;;;;21.83;20.23;;;;;;;;;;5033842;28;20214;-95
2022/04/08 06:20:11;;;;;;;22.42;20.83;;;;;;;;;;5034085;28;20226;-95
2022/04/08 06:22:39;;;;;;;21.20;19.50;;;;;;;;;;5033506;28;20189;-96
2022/04/08 06:25:08;;;;;;;20.65;19.17;;;;;;;;;;5015691;28;20209;-95
2022/04/08 06:27:36;;;;;;;20.70;19.27;;;;;;;;;;5033724;28;20243;-95
2022/04/08 06:30:04;;;;;;;23.55;21.85;;;;;;;;;;5015996;28;20190;-95
2022/04/08 06:32:32;;;;;;;21.23;19.48;;;;;;;;;;5033374;28;20273;-94
2022/04/08 06:35:00;;;;;;;24.45;19.77;;;;;;;;;;5020034;28;20197;-93
2022/04/08 06:37:32;;;;;;;22.27;20.40;;;;;;;;;;5037058;28;20217;-93
2022/04/08 06:40:04;;;;;;;21.13;19.00;;;;;;;;;;5036882;28;20207;-92
2022/04/08 06:42:31;;;;;;;21.63;19.83;;;;;;;;;;5037201;28;20201;-94
2022/04/08 06:44:59;;;;;;;20.98;19.25;;;;;;;;;;5036989;28;20193;-94
2022/04/08 06:47:26;;;;;;;20.33;19.00;;;;;;;;;;5019272;28;20201;-94
2022/04/08 06:49:54;;;;;;;21.30;19.60;;;;;;;;;;5036122;28;20193;-93
2022/04/08 06:52:21;;;;;;;29.02;19.45;;;;;;;;;;5036557;28;20737;-93
2022/04/08 06:54:50;;;;;;;21.95;20.00;;;;;;;;;;5019293;28;20551;-94
2022/04/08 06:57:18;;;;;;;20.63;19.20;;;;;;;;;;5036138;28;20237;-92
2022/04/08 06:59:46;;;;;;;20.92;19.55;;;;;;;;;;5036786;28;20193;-95
2022/04/08 07:02:14;;;;;;;21.77;19.90;;;;;;;;;;5036249;28;20663;-93
2022/04/08 07:04:41;;;;;;;20.90;19.50;;;;;;;;;;5019575;28;20229;-93
2022/04/08 07:07:08;;;;;;;21.25;19.75;;;;;;;;;;5037010;28;20190;-92
2022/04/08 07:09:36;;;;;;;21.17;19.48;;;;;;;;;;5036569;28;20194;-92
2022/04/08 07:12:06;;;;;;;20.83;19.40;;;;;;;;;;5036873;28;20197;-95
2022/04/08 07:14:33;;;;;;;21.05;19.60;;;;;;;;;;5018574;28;20206;-95
2022/04/08 07:17:01;;;;;;;21.80;20.10;;;;;;;;;;5035729;28;20778;-95
2022/04/08 07:19:28;;;;;;;20.73;19.17;;;;;;;;;;5018457;28;20585;-92
2022/04/08 07:21:57;;;;;;;21.83;20.10;;;;;;;;;;5036197;28;20544;-91
2022/04/08 07:24:24;;;;;;;20.60;19.00;;;;;;;;;;5036029;28;20194;-92
2022/04/08 07:26:52;;;;;;;22.80;21.20;;;;;;;;;;5035826;28;20209;-90
2022/04/08 07:29:21;;;;;;;22.10;20.05;;;;;;;;;;5036266;28;20208;-91
2022/04/08 07:31:48;;;;;;;20.15;18.83;;;;;;;;;;5018386;28;20205;-90
2022/04/08 07:34:16;;;;;;;21.20;19.50;;;;;;;;;;5036024;28;20267;-90
2022/04/08 07:36:43;;;;;;;21.17;19.77;;;;;;;;;;5018069;28;20228;-91
2022/04/08 07:39:11;;;;;;;21.75;20.13;;;;;;;;;;5035886;28;20694;-89
2022/04/08 07:41:38;;;;;;;21.30;19.83;;;;;;;;;;5035738;28;20205;-91
2022/04/08 07:44:06;;;;;;;22.45;20.67;;;;;;;;;;5035513;28;20209;-92
2022/04/08 07:46:35;;;;;;;21.55;19.90;;;;;;;;;;5035484;28;20201;-91
2022/04/08 07:49:02;;;;;;;25.90;20.55;;;;;;;;;;5035659;28;20186;-92
2022/04/08 07:51:30;;;;;;;21.70;20.02;;;;;;;;;;5035854;28;20608;-91
2022/04/08 07:53:57;;;;;;;21.80;20.20;;;;;;;;;;5035658;28;20529;-92
2022/04/08 07:56:24;;;;;;;23.58;21.67;;;;;;;;;;5034890;28;20484;-92
2022/04/08 07:58:52;;;;;;;22.60;20.35;;;;;;;;;;5035371;28;20189;-87
2022/04/08 08:01:19;;;;;;;21.27;19.98;;;;;;;;;;5019458;28;20202;-85
2022/04/08 08:03:48;;;;;;;21.50;20.25;;;;;;;;;;5015376;28;20197;-91
2022/04/08 08:06:16;;;;;;;21.75;20.15;;;;;;;;;;5015523;28;20640;-90
2022/04/08 08:08:44;;;;;;;23.05;20.88;;;;;;;;;;5015529;28;20214;-87
2022/04/08 08:11:13;;;;;;;21.05;19.60;;;;;;;;;;4998479;28;20209;-90
2022/04/08 08:13:41;;;;;;;21.17;19.88;;;;;;;;;;4999118;28;20194;-88
2022/04/08 08:16:09;;;;;;;22.48;21.15;;;;;;;;;;5015597;28;20186;-85
2022/04/08 08:18:36;;;;;;;21.80;20.40;;;;;;;;;;5015161;28;20210;-89
2022/04/08 08:21:05;;;;;;;22.10;20.70;;;;;;;;;;5015159;28;20592;-87
2022/04/08 08:23:33;;;;;;;22.20;20.58;;;;;;;;;;5014795;28;20217;-87
2022/04/08 08:26:00;;;;;;;22.23;20.75;;;;;;;;;;5014724;28;20190;-87
2022/04/08 08:28:28;;;;;;;22.02;20.63;;;;;;;;;;5014676;28;20186;-87
2022/04/08 08:30:55;;;;;;;21.63;20.33;;;;;;;;;;5029988;28;20256;-87
2022/04/08 08:33:23;;;;;;;22.20;20.80;;;;;;;;;;5017234;28;20440;-89
2022/04/08 08:35:50;;;;;;;22.27;20.67;;;;;;;;;;5034887;28;20220;-88
2022/04/08 08:38:19;;;;;;;23.13;21.50;;;;;;;;;;5034538;28;20476;-89
2022/04/08 08:40:48;;;;;;;22.13;20.73;;;;;;;;;;5034741;28;20193;-89
2022/04/08 08:43:18;;;;;;;21.42;20.02;;;;;;;;;;5034421;28;20198;-88
2022/04/08 08:45:46;;;;;;;23.25;21.63;;;;;;;;;;5034324;28;20216;-89
2022/04/08 08:48:15;;;;;;;22.30;20.95;;;;;;;;;;5034900;28;20626;-89
2022/04/08 08:50:46;;;;;;;22.25;20.40;;;;;;;;;;5017283;28;20224;-89
2022/04/08 08:53:17;;;;;;;22.63;21.10;;;;;;;;;;5034626;28;20201;-88
2022/04/08 08:55:48;;;;;;;22.00;20.42;;;;;;;;;;5017743;28;20209;-90
2022/04/08 08:58:15;;;;;;;21.58;20.08;;;;;;;;;;5034382;28;20233;-89
2022/04/08 09:00:43;;;;;;;22.63;20.80;;;;;;;;;;5019159;28;20617;-89
2022/04/08 09:03:11;;;;;;;23.42;21.23;;;;;;;;;;5034442;28;20556;-89
2022/04/08 09:05:42;;;;;;;21.15;19.80;;;;;;;;;;5017250;28;20217;-90
2022/04/08 09:08:10;;;;;;;22.40;20.70;;;;;;;;;;5034488;28;20196;-90
2022/04/08 09:10:39;;;;;;;23.93;22.17;;;;;;;;;;5034125;28;20190;-90
2022/04/08 09:13:08;;;;;;;22.25;20.85;;;;;;;;;;5034248;28;20483;-89
2022/04/08 09:15:38;;;;;;;22.87;21.47;;;;;;;;;;5034082;28;20193;-94
2022/04/08 09:18:10;;;;;;;24.58;22.73;;;;;;;;;;5034454;28;20487;-92
2022/04/08 09:20:41;;;;;;;27.07;22.83;;;;;;;;;;5034479;28;20683;-93
2022/04/08 09:23:09;;;;;;;23.70;22.10;;;;;;;;;;5034412;28;20800;-87
2022/04/08 09:25:37;;;;;;;24.60;22.77;;;;;;;;;;5034194;28;20451;-86
2022/04/08 09:28:09;;;;;;;25.00;22.52;;;;;;;;;;5033400;28;20443;-84
2022/04/08 09:30:37;;;;;;;23.47;21.70;;;;;;;;;;5033571;28;20205;-86
2022/04/08 09:33:15;;;;;;;22.40;20.90;;;;;;;;;;5033510;28;20443;-86
2022/04/08 09:35:44;;;;;;;23.10;21.43;;;;;;;;;;5034299;28;20239;-85
2022/04/08 09:38:11;;;;;;;23.85;22.13;;;;;;;;;;5033985;28;20488;-86
2022/04/08 09:40:39;;;;;;;23.03;21.43;;;;;;;;;;5035150;28;20298;-87
2022/04/08 09:43:09;;;;;;;22.63;21.25;;;;;;;;;;5035551;28;20443;-87
2022/04/08 09:45:38;;;;;;;24.95;23.15;;;;;;;;;;5035350;28;20194;-87
2022/04/08 09:48:06;;;;;;;23.85;22.35;;;;;;;;;;5036348;28;20212;-87
2022/04/08 09:50:35;;;;;;;24.37;22.47;;;;;;;;;;5033474;28;20547;-86
2022/04/08 09:53:03;;;;;;;23.00;21.50;;;;;;;;;;5032643;28;20419;-87
2022/04/08 09:55:31;;;;;;;23.15;21.58;;;;;;;;;;5033755;28;20440;-96
2022/04/08 09:57:59;;;;;;;23.73;21.60;;;;;;;;;;5033698;28;20244;-87
2022/04/08 10:00:28;;;;;;;23.47;21.77;;;;;;;;;;5016430;28;20789;-87
2022/04/08 10:02:58;;;;;;;24.53;22.83;;;;;;;;;;5033549;28;20444;-84
2022/04/08 10:05:26;;;;;;;24.73;22.80;;;;;;;;;;5033310;28;20448;-86
2022/04/08 10:07:55;;;;;;;25.80;24.10;;;;;;;;;;5035818;28;20443;-87
2022/04/08 10:10:25;;;;;;;25.43;23.33;;;;;;;;;;5020108;28;20930;-84
2022/04/08 10:13:06;;;;;;;24.67;22.87;;;;;;;;;;5037248;28;20488;-85
2022/04/08 10:15:38;;;;;;;24.27;22.57;;;;;;;;;;5037761;28;20432;-86
2022/04/08 10:18:06;;;;;;;22.63;21.13;;;;;;;;;;5036998;28;21055;-86
2022/04/08 10:20:34;;;;;;;24.33;22.53;;;;;;;;;;5037136;28;20483;-85
2022/04/08 10:23:06;;;;;;;23.73;21.83;;;;;;;;;;5036656;28;20414;-86
2022/04/08 10:25:37;;;;;;;24.60;22.87;;;;;;;;;;5036864;28;20454;-85
2022/04/08 10:28:06;;;;;;;23.83;22.10;;;;;;;;;;5018785;28;20487;-84
2022/04/08 10:30:36;;;;;;;23.47;21.87;;;;;;;;;;5036377;28;20505;-86
2022/04/08 10:33:04;;;;;;;22.63;21.13;;;;;;;;;;5036331;28;20482;-86
2022/04/08 10:35:32;;;;;;;23.27;21.70;;;;;;;;;;5036701;28;20448;-86
2022/04/08 10:38:00;;;;;;;23.20;21.60;;;;;;;;;;5036752;28;20484;-86
2022/04/08 10:40:31;;;;;;;22.30;20.90;;;;;;;;;;5036602;28;20418;-86
2022/04/08 10:42:59;;;;;;;23.97;22.03;;;;;;;;;;5036534;28;20407;-86
2022/04/08 10:45:26;;;;;;;23.33;21.47;;;;;;;;;;5036301;28;20882;-86
2022/04/08 10:47:56;;;;;;;22.67;21.37;;;;;;;;;;5036370;28;20430;-86
2022/04/08 10:50:27;;;;;;;23.33;21.70;;;;;;;;;;5036253;28;20935;-86
2022/04/08 10:53:04;;;;;;;22.30;20.90;;;;;;;;;;5036361;28;20506;-86
2022/04/08 10:55:32;;;;;;;24.38;22.33;;;;;;;;;;5035962;28;20933;-86
2022/04/08 10:58:00;;;;;;;23.47;21.67;;;;;;;;;;5035659;28;20245;-86
2022/04/08 11:00:28;;;;;;;23.27;21.67;;;;;;;;;;5036080;28;20889;-86
2022/04/08 11:02:57;;;;;;;23.57;22.03;;;;;;;;;;5036159;28;20815;-86
2022/04/08 11:05:24;;;;;;;24.20;22.60;;;;;;;;;;5036048;28;20418;-86
2022/04/08 11:07:52;;;;;;;24.57;22.80;;;;;;;;;;5018163;28;20415;-86
2022/04/08 11:10:20;;;;;;;24.20;22.60;;;;;;;;;;5035843;28;20776;-86
2022/04/08 11:12:48;;;;;;;23.83;22.23;;;;;;;;;;5035925;28;20441;-86
2022/04/08 11:15:16;;;;;;;24.33;22.83;;;;;;;;;;5035717;28;20444;-85
2022/04/08 11:17:43;;;;;;;24.40;22.77;;;;;;;;;;5035434;28;20488;-86
2022/04/08 11:20:16;;;;;;;23.30;21.90;;;;;;;;;;5035167;28;20498;-86
2022/04/08 11:22:43;;;;;;;23.63;22.10;;;;;;;;;;5035651;28;20448;-86
2022/04/08 11:25:12;;;;;;;23.53;22.13;;;;;;;;;;5035578;28;20411;-85
2022/04/08 11:27:39;;;;;;;24.50;22.17;;;;;;;;;;5035551;28;20459;-86
2022/04/08 11:30:10;;;;;;;23.67;22.20;;;;;;;;;;5017500;28;20455;-86
2022/04/08 11:32:40;;;;;;;23.60;22.00;;;;;;;;;;5035731;28;20447;-86
2022/04/08 11:35:15;;;;;;;23.67;22.30;;;;;;;;;;5035190;28;20430;-85
2022/04/08 11:37:43;;;;;;;23.63;22.10;;;;;;;;;;5035048;28;20473;-86
2022/04/08 11:40:18;;;;;;;23.83;22.33;;;;;;;;;;5034998;28;20925;-86
2022/04/08 11:42:46;;;;;;;24.50;22.87;;;;;;;;;;5035360;28;20411;-85
2022/04/08 11:45:14;;;;;;;24.47;22.57;;;;;;;;;;5017179;28;20887;-86
2022/04/08 11:47:47;;;;;;;25.13;23.53;;;;;;;;;;5035249;28;20418;-86
2022/04/08 11:50:23;;;;;;;24.83;23.33;;;;;;;;;;5018015;28;20459;-85
2022/04/08 11:52:53;;;;;;;24.03;22.63;;;;;;;;;;5035310;28;20424;-86
2022/04/08 11:55:24;;;;;;;24.50;22.80;;;;;;;;;;5035024;28;20462;-85
2022/04/08 11:57:51;;;;;;;23.43;21.77;;;;;;;;;;5034687;28;20532;-87
2022/04/08 12:00:24;;;;;;;25.73;23.80;;;;;;;;;;5035009;28;20456;-86
2022/04/08 12:02:52;;;;;;;24.00;22.40;;;;;;;;;;5034694;28;20992;-85
2022/04/08 12:05:24;;;;;;;24.47;23.00;;;;;;;;;;5034811;28;20415;-84
2022/04/08 12:07:53;;;;;;;26.73;24.73;;;;;;;;;;5016837;28;20461;-83
2022/04/08 12:10:20;;;;;;;23.40;22.10;;;;;;;;;;5034075;28;20487;-85
2022/04/08 12:12:48;;;;;;;24.10;22.70;;;;;;;;;;5034609;28;20924;-85
2022/04/08 12:15:16;;;;;;;23.40;22.00;;;;;;;;;;5031512;28;20446;-84
2022/04/08 12:17:44;;;;;;;24.97;23.23;;;;;;;;;;5034853;28;20459;-86
2022/04/08 12:20:14;;;;;;;25.07;23.47;;;;;;;;;;5035649;28;20447;-86
2022/04/08 12:22:43;;;;;;;25.50;23.40;;;;;;;;;;5019308;28;20411;-86
2022/04/08 12:25:10;;;;;;;23.37;21.87;;;;;;;;;;5034323;28;20906;-86
2022/04/08 12:27:38;;;;;;;24.60;23.00;;;;;;;;;;5034845;28;20801;-86
2022/04/08 12:30:08;;;;;;;23.40;22.00;;;;;;;;;;5034564;28;20407;-86
2022/04/08 12:32:36;;;;;;;22.93;21.53;;;;;;;;;;5034573;28;20448;-87
2022/04/08 12:35:06;;;;;;;25.07;23.47;;;;;;;;;;5034381;28;20427;-88
2022/04/08 12:37:33;;;;;;;24.90;23.10;;;;;;;;;;5034721;28;20828;-88
2022/04/08 12:40:02;;;;;;;23.90;22.40;;;;;;;;;;5034722;28;20764;-86
2022/04/08 12:42:29;;;;;;;24.20;22.70;;;;;;;;;;5034661;28;20827;-87
2022/04/08 12:44:56;;;;;;;23.73;22.33;;;;;;;;;;5034249;28;20432;-87
2022/04/08 12:47:24;;;;;;;25.17;23.73;;;;;;;;;;5034224;28;20765;-86
2022/04/08 12:49:51;;;;;;;23.87;22.47;;;;;;;;;;5034398;28;20437;-86
2022/04/08 12:52:19;;;;;;;24.17;22.57;;;;;;;;;;5034300;28;20426;-86
2022/04/08 12:54:46;;;;;;;25.23;23.53;;;;;;;;;;5034043;28;20451;-86
2022/04/08 12:57:15;;;;;;;23.97;22.47;;;;;;;;;;5033733;28;20458;-87
2022/04/08 12:59:44;;;;;;;24.70;23.00;;;;;;;;;;5034078;28;20459;-86
2022/04/08 13:02:11;;;;;;;23.67;22.23;;;;;;;;;;5033587;28;20440;-86
2022/04/08 13:04:39;;;;;;;24.73;23.33;;;;;;;;;;5033628;28;20471;-86
2022/04/08 13:07:07;;;;;;;24.57;23.07;;;;;;;;;;5033999;28;20411;-86
2022/04/08 13:09:34;;;;;;;25.00;23.53;;;;;;;;;;5016655;28;20452;-86
2022/04/08 13:12:02;;;;;;;24.97;23.17;;;;;;;;;;5016247;28;20427;-86
2022/04/08 13:14:31;;;;;;;23.83;22.43;;;;;;;;;;5033785;28;20515;-87
2022/04/08 13:16:58;;;;;;;22.90;21.50;;;;;;;;;;5033929;28;20482;-87
2022/04/08 13:19:25;;;;;;;24.47;22.97;;;;;;;;;;5016032;28;20467;-86
2022/04/08 13:21:53;;;;;;;23.87;22.30;;;;;;;;;;5034063;28;20430;-87
2022/04/08 13:24:21;;;;;;;23.93;22.23;;;;;;;;;;5033912;28;20433;-87
2022/04/08 13:26:49;;;;;;;24.27;22.87;;;;;;;;;;5033892;28;20434;-86
2022/04/08 13:29:16;;;;;;;24.17;22.47;;;;;;;;;;5033918;28;20451;-87
2022/04/08 13:31:45;;;;;;;23.60;22.20;;;;;;;;;;5033829;28;20449;-87
2022/04/08 13:34:12;;;;;;;24.50;23.00;;;;;;;;;;5015998;28;20448;-87
2022/04/08 13:36:40;;;;;;;24.67;22.97;;;;;;;;;;5033472;28;20435;-87
2022/04/08 13:39:07;;;;;;;25.80;23.77;;;;;;;;;;5032988;28;20487;-85
2022/04/08 13:41:34;;;;;;;23.07;21.67;;;;;;;;;;5033187;28;20437;-85
2022/04/08 13:44:02;;;;;;;23.93;22.50;;;;;;;;;;5037186;28;20899;-85
2022/04/08 13:46:29;;;;;;;25.00;23.50;;;;;;;;;;5036824;28;21257;-85
2022/04/08 13:48:58;;;;;;;25.10;23.43;;;;;;;;;;5037037;28;20427;-84
2022/04/08 13:51:25;;;;;;;25.10;23.50;;;;;;;;;;5036942;28;20910;-85
2022/04/08 13:53:53;;;;;;;24.60;22.90;;;;;;;;;;5036784;28;20477;-86
2022/04/08 13:56:21;;;;;;;23.67;22.40;;;;;;;;;;5037389;28;20447;-86
2022/04/08 13:58:48;;;;;;;24.17;22.73;;;;;;;;;;5036915;28;20983;-86
2022/04/08 14:01:15;;;;;;;25.60;24.00;;;;;;;;;;5037232;28;20426;-85
2022/04/08 14:03:43;;;;;;;25.40;23.87;;;;;;;;;;5037331;28;20838;-86
2022/04/08 14:06:13;;;;;;;25.13;23.63;;;;;;;;;;5037496;28;20442;-86
2022/04/08 14:08:41;;;;;;;25.63;23.83;;;;;;;;;;5019198;28;20452;-87
2022/04/08 14:11:08;;;;;;;25.33;23.70;;;;;;;;;;5037280;28;20746;-86
2022/04/08 14:13:36;;;;;;;25.23;23.50;;;;;;;;;;5037042;28;20422;-85
2022/04/08 14:16:03;;;;;;;25.03;23.60;;;;;;;;;;5037056;28;20406;-86
2022/04/08 14:18:30;;;;;;;23.77;22.33;;;;;;;;;;5036706;28;20454;-86
2022/04/08 14:20:58;;;;;;;25.10;23.50;;;;;;;;;;5036718;28;20419;-86